createdAt,value
2023-05-14T00:00:54.214Z,13.72
2023-05-14T00:03:21.646Z,13.83
2023-05-14T00:05:48.932Z,13.46
2023-05-14T00:08:16.278Z,13.38
2023-05-14T00:10:43.553Z,13.37
2023-05-14T00:13:10.893Z,13.31
2023-05-14T00:15:38.418Z,13.32
2023-05-14T00:18:05.736Z,13.34
2023-05-14T00:20:33.229Z,13.33
2023-05-14T00:23:00.656Z,13.39
2023-05-14T00:25:28.342Z,13.35
2023-05-14T00:27:55.645Z,13.28
2023-05-14T00:30:23.156Z,13.27
2023-05-14T00:32:50.687Z,13.23
2023-05-14T00:35:18.160Z,13.30
2023-05-14T00:37:45.392Z,13.25
2023-05-14T00:40:13.142Z,13.18
2023-05-14T00:42:40.835Z,13.26
2023-05-14T00:45:08.539Z,13.15
2023-05-14T00:47:36.273Z,13.22
2023-05-14T00:50:04.552Z,13.25
2023-05-14T00:52:32.067Z,13.20
2023-05-14T00:55:00.729Z,13.26
2023-05-14T00:57:28.068Z,13.14
2023-05-14T00:59:55.964Z,13.23
2023-05-14T01:02:23.400Z,13.29
2023-05-14T01:04:51.946Z,13.23
2023-05-14T01:07:36.200Z,13.23
2023-05-14T01:10:11.365Z,13.12
2023-05-14T01:13:04.213Z,13.15
2023-05-14T01:15:33.519Z,13.22
2023-05-14T01:18:10.194Z,13.09
2023-05-14T01:20:37.539Z,13.14
2023-05-14T01:23:04.804Z,13.14
2023-05-14T01:25:32.103Z,13.09
2023-05-14T01:28:02.376Z,13.26
2023-05-14T01:30:34.073Z,13.16
2023-05-14T01:33:05.788Z,13.23
2023-05-14T01:35:33.676Z,13.27
2023-05-14T01:38:03.410Z,13.00
2023-05-14T01:40:32.758Z,12.97
2023-05-14T01:43:01.209Z,13.16
2023-05-14T01:45:29.923Z,13.17
2023-05-14T01:47:58.009Z,13.20
2023-05-14T01:50:26.524Z,13.12
2023-05-14T01:52:53.937Z,13.25
2023-05-14T01:55:21.207Z,13.19
2023-05-14T01:57:48.553Z,13.28
2023-05-14T02:00:15.932Z,13.14
2023-05-14T02:02:43.425Z,13.11
2023-05-14T02:05:11.584Z,13.07
2023-05-14T02:07:39.056Z,13.23
2023-05-14T02:10:07.189Z,13.19
2023-05-14T02:12:34.678Z,13.08
2023-05-14T02:15:03.321Z,13.04
2023-05-14T02:17:30.796Z,13.14
2023-05-14T02:19:58.698Z,13.08
2023-05-14T02:22:25.992Z,13.16
2023-05-14T02:24:53.347Z,13.32
2023-05-14T02:27:20.570Z,13.23
2023-05-14T02:29:47.800Z,13.15
2023-05-14T02:32:15.135Z,13.15
2023-05-14T02:34:42.504Z,13.13
2023-05-14T02:37:09.837Z,13.09
2023-05-14T02:39:37.114Z,13.02
2023-05-14T02:42:04.588Z,12.94
2023-05-14T02:44:32.078Z,12.84
2023-05-14T02:46:59.298Z,12.79
2023-05-14T02:49:26.521Z,12.73
2023-05-14T02:51:53.791Z,12.63
2023-05-14T02:54:21.095Z,12.59
2023-05-14T02:56:48.399Z,12.72
2023-05-14T02:59:16.336Z,12.63
2023-05-14T03:01:44.616Z,12.55
2023-05-14T03:04:12.385Z,12.60
2023-05-14T03:06:39.674Z,12.61
2023-05-14T03:09:07.124Z,12.58
2023-05-14T03:11:35.190Z,12.59
2023-05-14T03:14:02.413Z,12.56
2023-05-14T03:16:29.872Z,12.57
2023-05-14T03:18:58.115Z,12.45
2023-05-14T03:21:25.893Z,12.52
2023-05-14T03:23:53.676Z,12.56
2023-05-14T03:26:20.918Z,12.53
2023-05-14T03:28:48.557Z,12.57
2023-05-14T03:31:15.912Z,12.52
2023-05-14T03:33:43.320Z,12.63
2023-05-14T03:36:10.708Z,12.54
2023-05-14T03:38:38.397Z,12.82
2023-05-14T03:41:05.662Z,12.93
2023-05-14T03:43:33.559Z,12.83
2023-05-14T03:46:00.871Z,12.69
2023-05-14T03:48:28.639Z,12.63
2023-05-14T03:50:57.344Z,12.70
2023-05-14T03:53:26.484Z,12.70
2023-05-14T03:55:54.478Z,12.74
2023-05-14T03:58:22.096Z,12.84
2023-05-14T04:00:49.979Z,12.82
2023-05-14T04:03:17.966Z,12.88
2023-05-14T04:05:45.814Z,13.76
2023-05-14T04:08:14.441Z,15.17
2023-05-14T04:10:43.327Z,15.11
2023-05-14T04:13:11.542Z,15.65
2023-05-14T04:15:39.284Z,15.88
2023-05-14T04:18:07.212Z,16.29
2023-05-14T04:20:35.362Z,16.24
2023-05-14T04:23:03.175Z,15.42
2023-05-14T04:25:31.072Z,15.42
2023-05-14T04:27:58.378Z,15.59
2023-05-14T04:30:26.020Z,16.09
2023-05-14T04:32:53.599Z,16.18
2023-05-14T04:35:24.035Z,16.14
2023-05-14T04:37:52.324Z,15.57
2023-05-14T04:40:19.558Z,16.11
2023-05-14T04:42:46.784Z,15.95
2023-05-14T04:45:14.136Z,16.29
2023-05-14T04:47:41.584Z,16.21
2023-05-14T04:50:09.694Z,16.36
2023-05-14T04:52:37.669Z,15.83
2023-05-14T04:55:05.701Z,15.14
2023-05-14T04:57:33.073Z,14.58
2023-05-14T05:00:00.423Z,14.03
2023-05-14T05:02:27.877Z,13.85
2023-05-14T05:04:55.913Z,13.86
2023-05-14T05:07:25.175Z,13.77
2023-05-14T05:09:53.038Z,13.51
2023-05-14T05:12:20.759Z,13.57
2023-05-14T05:14:51.780Z,13.67
2023-05-14T05:17:19.632Z,13.39
2023-05-14T05:19:47.523Z,13.57
2023-05-14T05:22:15.680Z,13.56
2023-05-14T05:24:52.884Z,13.70
2023-05-14T05:27:20.537Z,13.62
2023-05-14T05:29:48.045Z,13.50
2023-05-14T05:32:15.317Z,13.49
2023-05-14T05:34:42.621Z,13.45
2023-05-14T05:37:10.016Z,13.54
2023-05-14T05:39:37.278Z,13.49
2023-05-14T05:42:05.702Z,13.58
2023-05-14T05:44:32.991Z,13.76
2023-05-14T05:47:00.258Z,13.87
2023-05-14T05:49:27.557Z,13.59
2023-05-14T05:51:54.744Z,13.54
2023-05-14T05:54:23.699Z,13.64
2023-05-14T05:56:51.605Z,13.64
2023-05-14T05:59:18.910Z,13.68
2023-05-14T06:01:46.647Z,13.76
2023-05-14T06:04:13.976Z,13.59
2023-05-14T06:06:41.598Z,13.44
2023-05-14T06:09:08.966Z,13.63
2023-05-14T06:11:36.315Z,13.54
2023-05-14T06:14:03.944Z,13.51
2023-05-14T06:16:31.348Z,13.66
2023-05-14T06:18:58.750Z,13.57
2023-05-14T06:21:26.067Z,13.53
2023-05-14T06:23:53.416Z,13.63
2023-05-14T06:26:20.747Z,13.68
2023-05-14T06:28:48.021Z,13.49
2023-05-14T06:31:15.351Z,13.40
2023-05-14T06:33:42.527Z,13.49
2023-05-14T06:36:10.019Z,13.51
2023-05-14T06:38:37.438Z,13.34
2023-05-14T06:41:04.801Z,13.34
2023-05-14T06:43:32.156Z,13.32
2023-05-14T06:45:59.411Z,13.38
2023-05-14T06:48:27.139Z,13.29
2023-05-14T06:50:55.451Z,13.39
2023-05-14T06:53:22.749Z,13.36
2023-05-14T06:55:50.068Z,13.30
2023-05-14T06:58:17.431Z,13.14
2023-05-14T07:00:44.673Z,13.17
2023-05-14T07:03:11.970Z,13.26
2023-05-14T07:05:39.304Z,13.57
2023-05-14T07:08:06.792Z,13.57
2023-05-14T07:10:34.315Z,13.49
2023-05-14T07:13:01.711Z,13.51
2023-05-14T07:15:28.998Z,13.59
2023-05-14T07:17:56.709Z,13.72
2023-05-14T07:20:25.390Z,13.60
2023-05-14T07:22:53.017Z,13.54
2023-05-14T07:25:20.325Z,13.59
2023-05-14T07:27:47.687Z,13.58
2023-05-14T07:30:15.178Z,13.69
2023-05-14T07:32:42.566Z,13.73
2023-05-14T07:35:10.334Z,13.77
2023-05-14T07:37:37.944Z,13.73
2023-05-14T07:40:05.718Z,13.78
2023-05-14T07:42:36.646Z,13.91
2023-05-14T07:45:05.073Z,13.89
2023-05-14T07:47:33.647Z,13.82
2023-05-14T07:50:01.028Z,13.95
2023-05-14T07:52:28.251Z,14.01
2023-05-14T07:54:56.343Z,14.03
2023-05-14T07:57:23.585Z,13.98
2023-05-14T07:59:50.809Z,14.03
2023-05-14T08:02:18.143Z,14.10
2023-05-14T08:04:45.617Z,14.26
2023-05-14T08:07:12.884Z,14.16
2023-05-14T08:09:40.275Z,14.07
2023-05-14T08:12:07.724Z,13.97
2023-05-14T08:14:35.056Z,14.15
2023-05-14T08:17:02.417Z,14.32
2023-05-14T08:19:30.052Z,14.15
2023-05-14T08:21:57.536Z,14.21
2023-05-14T08:24:24.861Z,14.21
2023-05-14T08:26:52.355Z,14.29
2023-05-14T08:29:19.691Z,14.25
2023-05-14T08:31:47.357Z,14.29
2023-05-14T08:34:14.665Z,14.29
2023-05-14T08:36:42.148Z,14.52
2023-05-14T08:39:09.582Z,14.65
2023-05-14T08:41:36.938Z,14.77
2023-05-14T08:44:11.436Z,14.82
2023-05-14T08:46:39.728Z,14.95
2023-05-14T08:49:13.191Z,15.02
2023-05-14T08:51:41.136Z,14.98
2023-05-14T08:54:11.192Z,14.98
2023-05-14T08:56:39.720Z,15.21
2023-05-14T08:59:07.056Z,15.23
2023-05-14T09:01:34.575Z,15.39
2023-05-14T09:04:04.359Z,15.41
2023-05-14T09:06:31.965Z,15.48
2023-05-14T09:08:59.289Z,15.53
2023-05-14T09:11:26.649Z,15.48
2023-05-14T09:13:53.928Z,15.49
2023-05-14T09:16:22.164Z,15.59
2023-05-14T09:18:51.341Z,15.54
2023-05-14T09:21:18.736Z,15.73
2023-05-14T09:23:45.978Z,15.75
2023-05-14T09:26:17.705Z,15.87
2023-05-14T09:28:45.426Z,15.84
2023-05-14T09:31:12.993Z,16.00
2023-05-14T09:33:40.428Z,16.04
2023-05-14T09:36:07.926Z,16.09
2023-05-14T09:38:35.223Z,16.04
2023-05-14T09:41:02.579Z,16.08
2023-05-14T09:43:29.855Z,16.26
2023-05-14T09:45:57.166Z,16.56
2023-05-14T09:48:25.794Z,16.73
2023-05-14T09:50:53.565Z,16.70
2023-05-14T09:53:20.999Z,16.70
2023-05-14T09:55:48.316Z,16.94
2023-05-14T09:58:15.918Z,17.26
2023-05-14T10:00:45.778Z,17.28
2023-05-14T10:03:16.052Z,17.17
2023-05-14T10:05:47.552Z,17.26
2023-05-14T10:08:24.847Z,17.27
2023-05-14T10:10:55.509Z,17.34
2023-05-14T10:13:29.232Z,17.48
2023-05-14T10:16:03.360Z,17.57
2023-05-14T10:18:35.628Z,17.56
2023-05-14T10:21:07.863Z,17.54
2023-05-14T10:23:36.755Z,17.47
2023-05-14T10:26:05.034Z,17.90
2023-05-14T10:28:32.981Z,17.81
2023-05-14T10:31:00.501Z,17.75
2023-05-14T10:33:27.938Z,17.68
2023-05-14T10:36:05.722Z,17.90
2023-05-14T10:38:37.420Z,17.90
2023-05-14T10:41:11.454Z,17.91
2023-05-14T10:43:40.914Z,17.89
2023-05-14T10:46:09.687Z,18.19
2023-05-14T10:48:39.080Z,18.46
2023-05-14T10:51:08.712Z,18.36
2023-05-14T10:53:41.205Z,18.45
2023-05-14T10:56:14.347Z,18.58
2023-05-14T10:58:45.124Z,18.87
2023-05-14T11:01:13.405Z,19.03
2023-05-14T11:03:45.728Z,18.77
2023-05-14T11:06:15.021Z,18.87
2023-05-14T11:08:42.479Z,18.93
2023-05-14T11:11:10.172Z,18.67
2023-05-14T11:13:37.908Z,18.91
2023-05-14T11:16:18.979Z,19.33
2023-05-14T11:18:54.004Z,19.09
2023-05-14T11:21:21.492Z,19.21
2023-05-14T11:23:51.304Z,19.32
2023-05-14T11:26:21.404Z,19.47
2023-05-14T11:28:49.660Z,19.17
2023-05-14T11:31:17.129Z,19.27
2023-05-14T11:33:44.478Z,19.24
2023-05-14T11:36:11.855Z,19.37
2023-05-14T11:38:49.256Z,19.36
2023-05-14T11:41:16.689Z,19.42
2023-05-14T11:43:44.019Z,19.37
2023-05-14T11:46:17.355Z,19.37
2023-05-14T11:49:06.130Z,19.26
2023-05-14T11:51:36.094Z,19.21
2023-05-14T11:54:03.710Z,19.11
2023-05-14T11:56:31.114Z,19.38
2023-05-14T11:58:58.730Z,19.20
2023-05-14T12:01:26.136Z,19.13
2023-05-14T12:03:53.624Z,19.15
2023-05-14T12:06:20.965Z,19.38
2023-05-14T12:08:48.274Z,19.25
2023-05-14T12:11:20.898Z,19.04
2023-05-14T12:13:48.204Z,19.06
2023-05-14T12:16:15.643Z,19.29
2023-05-14T12:18:43.439Z,19.12
2023-05-14T12:21:10.873Z,19.11
2023-05-14T12:23:39.233Z,19.09
2023-05-14T12:26:08.620Z,19.26
2023-05-14T12:28:39.297Z,19.08
2023-05-14T12:31:06.761Z,19.18
2023-05-14T12:33:34.183Z,19.23
2023-05-14T12:36:14.017Z,19.25
2023-05-14T12:38:50.149Z,19.31
2023-05-14T12:41:18.002Z,19.41
2023-05-14T12:43:48.016Z,19.47
2023-05-14T12:46:15.778Z,19.50
2023-05-14T12:48:43.187Z,19.38
2023-05-14T12:51:10.561Z,19.41
2023-05-14T12:53:38.209Z,19.38
2023-05-14T12:56:06.636Z,19.53
2023-05-14T12:58:34.202Z,19.41
2023-05-14T13:01:01.622Z,19.32
2023-05-14T13:03:29.947Z,19.27
2023-05-14T13:05:57.385Z,19.34
2023-05-14T13:08:26.377Z,19.35
2023-05-14T13:10:54.917Z,19.35
2023-05-14T13:13:23.172Z,19.37
2023-05-14T13:15:50.991Z,19.45
2023-05-14T13:18:18.632Z,19.46
2023-05-14T13:20:46.774Z,19.44
2023-05-14T13:23:14.609Z,19.32
2023-05-14T13:25:42.077Z,19.36
2023-05-14T13:28:09.726Z,19.41
2023-05-14T13:30:37.010Z,19.34
2023-05-14T13:33:05.102Z,19.27
2023-05-14T13:35:32.995Z,19.21
2023-05-14T13:38:00.388Z,19.26
2023-05-14T13:40:27.611Z,19.44
2023-05-14T13:42:54.875Z,19.53
2023-05-14T13:45:22.214Z,19.25
2023-05-14T13:47:51.503Z,19.28
2023-05-14T13:50:19.046Z,19.18
2023-05-14T13:52:46.345Z,19.12
2023-05-14T13:55:13.723Z,19.10
2023-05-14T13:57:40.996Z,19.10
2023-05-14T14:00:09.179Z,19.04
2023-05-14T14:02:36.626Z,18.99
2023-05-14T14:05:04.392Z,18.94
2023-05-14T14:07:31.845Z,19.08
2023-05-14T14:09:59.223Z,18.97
2023-05-14T14:12:27.193Z,18.97
2023-05-14T14:14:54.446Z,18.92
2023-05-14T14:17:21.682Z,19.07
2023-05-14T14:19:49.094Z,18.99
2023-05-14T14:22:16.441Z,18.94
2023-05-14T14:24:43.819Z,18.86
2023-05-14T14:27:11.478Z,18.92
2023-05-14T14:29:38.841Z,18.94
2023-05-14T14:32:06.713Z,18.92
2023-05-14T14:34:34.262Z,18.91
2023-05-14T14:37:01.532Z,18.90
2023-05-14T14:39:28.752Z,18.85
2023-05-14T14:41:56.077Z,18.80
2023-05-14T14:44:23.395Z,18.76
2023-05-14T14:46:51.000Z,18.75
2023-05-14T14:49:18.277Z,18.75
2023-05-14T14:51:45.684Z,18.75
2023-05-14T14:54:13.939Z,18.75
2023-05-14T14:56:41.370Z,18.74
2023-05-14T14:59:08.681Z,18.69
2023-05-14T15:01:36.060Z,18.72
2023-05-14T15:04:03.406Z,18.68
2023-05-14T15:06:30.649Z,18.71
2023-05-14T15:08:57.936Z,18.71
2023-05-14T15:11:25.235Z,18.68
2023-05-14T15:13:52.545Z,18.68
2023-05-14T15:16:19.937Z,18.67
2023-05-14T15:18:47.223Z,18.69
2023-05-14T15:21:14.840Z,18.66
2023-05-14T15:23:44.945Z,18.65
2023-05-14T15:26:12.329Z,18.60
2023-05-14T15:28:39.586Z,18.67
2023-05-14T15:31:07.207Z,18.62
2023-05-14T15:33:34.477Z,18.62
2023-05-14T15:36:01.718Z,18.58
2023-05-14T15:38:46.896Z,18.61
2023-05-14T15:41:14.237Z,18.55
2023-05-14T15:43:42.449Z,18.55
2023-05-14T15:46:11.241Z,18.58
2023-05-14T15:48:38.768Z,18.58
2023-05-14T15:51:06.288Z,18.53
2023-05-14T15:53:33.934Z,19.45
2023-05-14T15:56:01.327Z,19.58
2023-05-14T15:58:28.543Z,19.90
2023-05-14T16:00:55.865Z,19.82
2023-05-14T16:03:23.296Z,19.74
2023-05-14T16:05:50.713Z,19.67
2023-05-14T16:08:18.060Z,19.73
2023-05-14T16:10:45.345Z,19.56
2023-05-14T16:13:12.819Z,19.65
2023-05-14T16:15:40.316Z,19.53
2023-05-14T16:18:07.882Z,19.58
2023-05-14T16:20:35.144Z,19.49
2023-05-14T16:23:02.405Z,19.42
2023-05-14T16:25:30.287Z,19.25
2023-05-14T16:27:57.568Z,19.70
2023-05-14T16:30:25.145Z,20.21
2023-05-14T16:32:52.606Z,20.03
2023-05-14T16:35:19.864Z,20.04
2023-05-14T16:37:47.321Z,19.73
2023-05-14T16:40:14.603Z,19.60
2023-05-14T16:42:42.832Z,19.56
2023-05-14T16:45:10.714Z,19.74
2023-05-14T16:47:38.025Z,19.74
2023-05-14T16:50:06.074Z,19.97
2023-05-14T16:52:33.531Z,19.77
2023-05-14T16:55:00.849Z,19.81
2023-05-14T16:57:28.044Z,19.65
2023-05-14T16:59:55.424Z,19.85
2023-05-14T17:02:22.712Z,19.73
2023-05-14T17:04:50.072Z,19.72
2023-05-14T17:07:17.420Z,19.48
2023-05-14T17:09:45.008Z,19.77
2023-05-14T17:12:12.258Z,19.70
2023-05-14T17:14:39.538Z,19.75
2023-05-14T17:17:07.271Z,19.58
2023-05-14T17:19:34.579Z,19.80
2023-05-14T17:22:02.059Z,20.06
2023-05-14T17:24:29.334Z,19.95
2023-05-14T17:26:56.862Z,19.85
2023-05-14T17:29:24.224Z,19.68
2023-05-14T17:31:51.854Z,19.63
2023-05-14T17:34:19.256Z,19.99
2023-05-14T17:36:46.625Z,19.79
2023-05-14T17:39:14.028Z,19.92
2023-05-14T17:41:41.595Z,19.89
2023-05-14T17:44:10.720Z,19.66
2023-05-14T17:46:40.255Z,19.50
2023-05-14T17:49:07.682Z,18.69
2023-05-14T17:51:35.324Z,18.36
2023-05-14T17:54:02.710Z,18.23
2023-05-14T17:56:30.240Z,18.19
2023-05-14T17:58:57.671Z,18.04
2023-05-14T18:01:25.021Z,17.98
2023-05-14T18:03:52.530Z,17.93
2023-05-14T18:06:19.987Z,17.85
2023-05-14T18:08:47.241Z,17.86
2023-05-14T18:11:14.568Z,17.81
2023-05-14T18:13:41.854Z,17.82
2023-05-14T18:16:09.167Z,17.78
2023-05-14T18:18:36.614Z,17.74
2023-05-14T18:21:04.092Z,17.77
2023-05-14T18:23:31.502Z,17.69
2023-05-14T18:25:59.623Z,17.64
2023-05-14T18:28:27.860Z,17.61
2023-05-14T18:30:55.194Z,17.54
2023-05-14T18:33:22.442Z,17.58
2023-05-14T18:35:49.726Z,17.53
2023-05-14T18:38:17.102Z,17.50
2023-05-14T18:40:44.492Z,17.42
2023-05-14T18:43:11.766Z,17.44
2023-05-14T18:45:39.830Z,17.39
2023-05-14T18:48:07.264Z,17.44
2023-05-14T18:50:34.601Z,17.38
2023-05-14T18:53:02.061Z,17.37
2023-05-14T18:55:29.487Z,17.39
2023-05-14T18:57:56.987Z,17.37
2023-05-14T19:00:24.531Z,17.39
2023-05-14T19:02:51.936Z,17.43
2023-05-14T19:05:19.609Z,17.34
2023-05-14T19:07:47.096Z,17.44
2023-05-14T19:10:14.845Z,17.41
2023-05-14T19:12:42.325Z,17.35
2023-05-14T19:15:10.091Z,17.20
2023-05-14T19:17:37.502Z,17.18
2023-05-14T19:20:06.229Z,17.20
2023-05-14T19:22:33.920Z,17.21
2023-05-14T19:25:01.432Z,17.16
2023-05-14T19:27:29.329Z,17.14
2023-05-14T19:29:56.998Z,17.14
2023-05-14T19:32:24.291Z,17.17
2023-05-14T19:34:51.744Z,17.19
2023-05-14T19:37:19.190Z,17.23
2023-05-14T19:39:47.162Z,17.12
2023-05-14T19:42:15.574Z,17.18
2023-05-14T19:44:43.056Z,17.20
2023-05-14T19:47:10.830Z,17.25
2023-05-14T19:49:38.317Z,17.24
2023-05-14T19:52:06.077Z,17.21
2023-05-14T19:54:33.386Z,17.18
2023-05-14T19:57:01.676Z,17.26
2023-05-14T19:59:30.154Z,17.14
2023-05-14T20:01:57.370Z,17.14
2023-05-14T20:04:24.825Z,17.08
2023-05-14T20:06:52.646Z,17.07
2023-05-14T20:09:20.071Z,17.12
2023-05-14T20:11:48.136Z,17.13
2023-05-14T20:14:15.392Z,17.10
2023-05-14T20:16:42.966Z,17.09
2023-05-14T20:19:10.385Z,17.07
2023-05-14T20:21:38.950Z,17.06
2023-05-14T20:24:06.473Z,17.03
2023-05-14T20:26:33.982Z,17.10
2023-05-14T20:29:01.304Z,17.19
2023-05-14T20:31:28.902Z,17.13
2023-05-14T20:33:56.350Z,17.04
2023-05-14T20:36:23.828Z,17.03
2023-05-14T20:38:51.179Z,17.03
2023-05-14T20:41:18.415Z,16.98
2023-05-14T20:43:45.784Z,16.91
2023-05-14T20:46:13.235Z,16.87
2023-05-14T20:48:40.583Z,16.92
2023-05-14T20:51:07.928Z,16.83
2023-05-14T20:53:36.099Z,16.88
2023-05-14T20:56:03.490Z,16.84
2023-05-14T20:58:30.953Z,16.85
2023-05-14T21:00:59.260Z,16.91
2023-05-14T21:03:35.483Z,16.80
2023-05-14T21:06:02.920Z,16.77
2023-05-14T21:08:30.673Z,16.87
2023-05-14T21:10:58.123Z,16.83
2023-05-14T21:13:25.441Z,16.73
2023-05-14T21:15:53.044Z,16.69
2023-05-14T21:18:20.452Z,16.71
2023-05-14T21:20:47.938Z,16.71
2023-05-14T21:23:15.237Z,16.68
2023-05-14T21:25:42.541Z,16.62
2023-05-14T21:28:09.864Z,16.64
2023-05-14T21:30:37.207Z,16.62
2023-05-14T21:33:05.119Z,16.61
2023-05-14T21:35:32.711Z,16.59
2023-05-14T21:38:00.205Z,16.60
2023-05-14T21:40:27.538Z,16.55
2023-05-14T21:42:54.852Z,16.48
2023-05-14T21:45:23.610Z,16.45
2023-05-14T21:47:51.650Z,16.52
2023-05-14T21:50:18.932Z,16.60
2023-05-14T21:52:46.206Z,16.40
2023-05-14T21:55:13.995Z,16.38
2023-05-14T21:57:41.433Z,16.40
2023-05-14T22:00:09.101Z,16.41
2023-05-14T22:02:36.822Z,16.36
2023-05-14T22:05:04.572Z,16.35
2023-05-14T22:07:32.745Z,16.29
2023-05-14T22:10:00.034Z,16.31
2023-05-14T22:12:27.627Z,16.25
2023-05-14T22:14:54.962Z,16.19
2023-05-14T22:17:22.225Z,16.20
2023-05-14T22:19:49.501Z,16.15
2023-05-14T22:22:16.729Z,16.16
2023-05-14T22:24:44.197Z,16.19
2023-05-14T22:27:11.435Z,16.16
2023-05-14T22:29:38.971Z,16.17
2023-05-14T22:32:06.758Z,16.21
2023-05-14T22:34:34.099Z,16.16
2023-05-14T22:37:01.566Z,16.16
2023-05-14T22:39:29.282Z,16.14
2023-05-14T22:41:56.576Z,16.11
2023-05-14T22:44:24.178Z,16.14
2023-05-14T22:46:51.698Z,16.08
2023-05-14T22:49:19.027Z,16.12
2023-05-14T22:51:46.215Z,16.08
2023-05-14T22:54:14.393Z,16.01
2023-05-14T22:56:41.692Z,15.98
2023-05-14T22:59:08.930Z,16.07
2023-05-14T23:01:36.219Z,16.03
2023-05-14T23:04:03.616Z,16.06
2023-05-14T23:06:31.192Z,16.02
2023-05-14T23:08:58.490Z,16.02
2023-05-14T23:11:26.906Z,15.95
2023-05-14T23:13:54.703Z,16.15
2023-05-14T23:16:22.208Z,16.09
2023-05-14T23:18:49.750Z,15.92
2023-05-14T23:21:17.186Z,15.98
2023-05-14T23:23:44.459Z,15.86
2023-05-14T23:26:11.765Z,15.78
2023-05-14T23:28:39.230Z,15.88
2023-05-14T23:31:06.562Z,15.77
2023-05-14T23:33:33.770Z,15.76
2023-05-14T23:36:01.229Z,15.74
2023-05-14T23:38:28.526Z,15.71
2023-05-14T23:40:55.774Z,15.69
2023-05-14T23:43:23.200Z,15.63
2023-05-14T23:45:50.559Z,15.65
2023-05-14T23:48:18.255Z,15.72
2023-05-14T23:50:45.530Z,15.68
2023-05-14T23:53:12.924Z,15.64
2023-05-14T23:55:40.439Z,15.72
2023-05-14T23:58:08.161Z,15.69
